Hovedside
METAR-TAF:

METAR-TAF

Lufthavner :

Arlanda lufthavn

Stockholm-Arlanda, Sverige

breddegrad: 59-39N, lengdegrad: 017-57E, høyde over havet: 38 m

Gjeldene værobservasjon

Denne rapporten ble laget for 16 minutter siden, klokken 15:20 UTC
Vind 16 kt fra Sørvest
Temperatur 16°C
Luftfuktighet 59%
Trykk 1006 hPa
Sikt 10 km eller mer
Brutte skyer i en høyde av 4500 ft

METAR: ESSA 201520Z 23016KT 9999 BKN045 16/08 Q1006 NOSIG

Tid: 17:36 (15:36 UTC)

Varsel

Denne rapporten ble laget for 4 timer og 6 minutter siden, klokken 11:30 UTC
Varsel gyldig fra 20. klokken 12 UTC til 21. klokken 12 UTC
Vind 20 kt fra Vest-sørvest med vindkast opp mot 35 kt
Sikt 10 km eller mer
ingen skyer under 1500 m og ingen bygeskyer
Blir
fra 20. klokken 16 UTC til 20. klokken 18 UTC
Vind 12 kt fra Sørvest
Blir
fra 21. klokken 01 UTC til 21. klokken 03 UTC
Vind 6 kt fra Sør

TAF: ESSA 201130Z 2012/2112 24020G35KT CAVOK BECMG 2016/2018 23012KT BECMG 2101/2103 18006KT

Værobservasjoner og værvarsel for over 4000 flyplasser (METAR- og TAF-rapporter).

Tilgjengelige stasjoner er representert av de røde og gule prikkene på kartet.

Hold musepekeren over prikken for å se navnet på stasjonen.

Klikk så for å se værobservasjoner og -varsler.

For å forandre kartet kan du klikke på den grønne knappen med svart kryss for å zoome inn, på den grønne knappen med strek for å zoome ut, eller på de grønne pilene for å se tilstøtende kart.


METAR-TAF: